Time;durP1;ratioP1;P1;durP2;ratioP2;P2;SDS_P1;SDS_P2;PMS_P1;PMS_P2;Temp;Humidity;BMP_temperature;BMP_pressure;BME280_temperature;BME280_humidity;BME280_pressure;Samples;Min_cycle;Max_cycle;Signal;HPM_P1;HPM_P2
2022/11/17 00:00:40;;;;;;;30.02;17.85;;;;;;;10.30;79.07;98348.03;4288797;33;35229;-74
2022/11/17 00:03:18;;;;;;;28.27;17.37;;;;;;;10.19;79.83;98352.69;4288508;33;33384;-75
2022/11/17 00:05:45;;;;;;;27.98;17.77;;;;;;;10.30;79.22;98351.56;4289755;33;33999;-79
2022/11/17 00:08:13;;;;;;;29.70;17.50;;;;;;;10.04;79.52;98357.13;4288751;33;35042;-73
2022/11/17 00:10:40;;;;;;;29.33;18.23;;;;;;;10.46;78.42;98353.06;4289956;33;34411;-74
2022/11/17 00:15:55;;;;;;;31.70;18.70;;;;;;;10.15;79.07;98355.16;4277910;33;34033;-81
2022/11/17 00:21:22;;;;;;;31.87;19.02;;;;;;;9.55;82.70;98349.75;4275354;33;34057;-77
2022/11/17 00:23:49;;;;;;;27.65;16.35;;;;;;;9.64;82.27;98345.38;4288626;33;33808;-79
2022/11/17 00:26:27;;;;;;;26.58;17.15;;;;;;;9.79;81.68;98343.69;4289710;33;33974;-81
2022/11/17 00:28:56;;;;;;;31.08;18.73;;;;;;;9.88;81.47;98342.03;4289997;33;33965;-75
2022/11/17 00:34:14;;;;;;;31.52;19.70;;;;;;;9.00;86.52;98348.78;4274726;33;33565;-74
2022/11/17 00:36:49;;;;;;;32.78;18.77;;;;;;;9.21;85.62;98344.97;4279209;33;33516;-75
2022/11/17 00:39:19;;;;;;;30.98;18.90;;;;;;;9.42;84.10;98343.03;4289840;33;33985;-75
2022/11/17 00:41:46;;;;;;;31.90;19.08;;;;;;;9.32;84.71;98350.38;4289708;33;34349;-75
2022/11/17 00:44:14;;;;;;;29.20;17.65;;;;;;;9.66;83.15;98342.41;4289551;33;34299;-74
2022/11/17 00:46:42;;;;;;;28.48;18.40;;;;;;;10.19;79.97;98342.66;4287680;33;34758;-72
2022/11/17 00:49:10;;;;;;;26.65;17.48;;;;;;;10.17;80.20;98344.03;4288192;33;33927;-75
2022/11/17 00:51:37;;;;;;;31.02;18.52;;;;;;;10.04;80.88;98345.44;4285591;33;34076;-81
2022/11/17 00:54:06;;;;;;;28.27;17.12;;;;;;;9.96;81.15;98346.87;4289598;33;33838;-74
2022/11/17 00:56:34;;;;;;;30.48;18.55;;;;;;;9.93;81.04;98338.47;4289370;33;33992;-75
2022/11/17 00:59:01;;;;;;;32.92;19.70;;;;;;;9.09;84.60;98343.62;4287556;33;35007;-80
2022/11/17 01:01:29;;;;;;;29.30;17.90;;;;;;;9.44;83.69;98340.06;4287278;33;35126;-80
2022/11/17 01:04:01;;;;;;;29.70;17.75;;;;;;;9.85;82.21;98340.69;4281142;33;33843;-74
2022/11/17 01:06:41;;;;;;;30.33;18.75;;;;;;;10.11;80.40;98327.00;4277241;33;33598;-80
2022/11/17 01:09:12;;;;;;;37.00;18.73;;;;;;;8.80;87.07;98323.41;4273936;33;35087;-74
2022/11/17 01:11:40;;;;;;;28.25;17.00;;;;;;;9.21;85.68;98323.31;4273958;33;33920;-74
2022/11/17 01:14:16;;;;;;;29.73;17.80;;;;;;;9.86;82.37;98317.09;4283979;33;34387;-75
2022/11/17 01:16:44;;;;;;;30.73;17.75;;;;;;;9.74;82.59;98313.91;4289087;33;33666;-75
2022/11/17 01:19:13;;;;;;;28.27;16.77;;;;;;;10.15;80.88;98306.38;4288054;33;35124;-74
2022/11/17 01:21:40;;;;;;;27.33;16.45;;;;;;;10.40;79.41;98305.41;4286979;33;34236;-80
2022/11/17 01:24:10;;;;;;;27.00;16.33;;;;;;;10.04;80.36;98296.69;4289385;33;33778;-74
2022/11/17 01:26:38;;;;;;;26.52;16.65;;;;;;;10.22;79.38;98298.72;4288016;33;34108;-74
2022/11/17 01:29:06;;;;;;;28.67;17.67;;;;;;;9.90;81.12;98299.22;4288081;33;35121;-74
2022/11/17 01:31:36;;;;;;;27.92;16.45;;;;;;;9.85;80.79;98305.47;4289164;33;35202;-73
2022/11/17 01:34:04;;;;;;;26.77;15.80;;;;;;;10.03;80.11;98298.59;4289186;33;34030;-72
2022/11/17 01:39:25;;;;;;;26.73;16.80;;;;;;;10.08;78.85;98295.03;4274643;33;34245;-73
2022/11/17 01:41:53;;;;;;;28.90;17.62;;;;;;;10.41;77.24;98295.34;4273349;33;34234;-74
2022/11/17 01:44:47;;;;;;;28.17;16.95;;;;;;;10.26;77.81;98304.41;4287882;33;34546;-74
2022/11/17 01:47:24;;;;;;;28.27;17.23;;;;;;;10.11;78.80;98299.91;4288660;33;34102;-74
2022/11/17 01:49:55;;;;;;;26.23;16.50;;;;;;;9.83;79.62;98302.22;4288703;33;34328;-80
2022/11/17 01:52:23;;;;;;;28.08;16.05;;;;;;;9.56;81.08;98301.81;4280316;33;34053;-75
2022/11/17 01:54:53;;;;;;;31.52;16.90;;;;;;;9.72;80.96;98311.50;4274609;33;33747;-73
2022/11/17 01:57:25;;;;;;;30.05;17.87;;;;;;;10.12;78.89;98315.06;4273437;33;34750;-74
2022/11/17 01:59:57;;;;;;;27.92;17.65;;;;;;;9.51;81.98;98313.47;4283989;33;34169;-80
2022/11/17 02:02:24;;;;;;;29.87;18.20;;;;;;;9.58;80.84;98316.69;4287743;33;34109;-75
2022/11/17 02:05:03;;;;;;;29.00;18.08;;;;;;;9.77;80.36;98322.31;4287617;33;33732;-75
2022/11/17 02:07:33;;;;;;;29.98;18.37;;;;;;;9.49;81.23;98312.16;4286489;33;34668;-77
2022/11/17 02:10:02;;;;;;;28.98;18.00;;;;;;;9.65;80.13;98321.81;4287545;33;34209;-79
2022/11/17 02:12:31;;;;;;;29.05;17.27;;;;;;;9.70;79.83;98326.38;4288646;33;33787;-81
2022/11/17 02:14:59;;;;;;;32.92;18.83;;;;;;;9.35;81.84;98337.09;4288983;33;34588;-74
2022/11/17 02:17:34;;;;;;;32.38;18.85;;;;;;;9.47;81.30;98323.25;4289751;33;34020;-74
2022/11/17 02:20:06;;;;;;;34.50;19.23;;;;;;;9.08;82.55;98318.50;4288295;33;33984;-80
2022/11/17 02:22:47;;;;;;;28.27;16.98;;;;;;;9.11;83.27;98315.22;4287306;33;34451;-80
2022/11/17 02:25:29;;;;;;;31.50;18.45;;;;;;;9.16;83.35;98317.94;4274965;33;33908;-75
2022/11/17 02:28:27;;;;;;;30.42;17.25;;;;;;;9.09;82.73;98306.56;4274974;33;33619;-81
2022/11/17 02:31:36;;;;;;;31.90;18.37;;;;;;;8.74;85.53;98307.44;4270356;33;34320;-76
2022/11/17 02:34:30;;;;;;;32.10;18.58;;;;;;;9.01;83.57;98307.16;4276187;33;34681;-80
2022/11/17 02:37:02;;;;;;;30.23;17.83;;;;;;;8.91;84.45;98290.94;4275059;33;33625;-81
2022/11/17 02:39:41;;;;;;;32.70;19.60;;;;;;;9.00;83.68;98289.28;4288467;33;34706;-74
2022/11/17 02:45:38;;;;;;;32.35;18.85;;;;;;;9.07;83.29;98289.00;4289361;33;35352;-73
2022/11/17 02:48:12;;;;;;;32.58;18.10;;;;;;;8.74;85.16;98286.63;4288050;33;33656;-78
2022/11/17 02:50:40;;;;;;;29.08;17.42;;;;;;;9.11;82.88;98284.66;4290623;33;33782;-81
2022/11/17 02:53:08;;;;;;;31.30;17.55;;;;;;;8.97;82.83;98289.84;4288383;33;35118;-81
2022/11/17 02:55:36;;;;;;;30.70;17.98;;;;;;;8.97;82.57;98292.53;4290202;33;34138;-81
2022/11/17 02:58:09;;;;;;;31.70;18.55;;;;;;;8.70;83.97;98299.06;4287360;33;33503;-74
2022/11/17 03:01:03;;;;;;;29.42;16.90;;;;;;;8.96;82.29;98290.91;4289347;33;33492;-80
2022/11/17 03:03:38;;;;;;;32.65;18.20;;;;;;;9.30;80.82;98288.38;4289412;33;35049;-78
2022/11/17 03:06:19;;;;;;;30.70;17.73;;;;;;;9.20;81.01;98277.59;4289619;33;33963;-80
2022/11/17 03:08:52;;;;;;;29.75;18.00;;;;;;;9.07;80.94;98272.75;4288944;33;33312;-75
2022/11/17 03:11:22;;;;;;;32.03;17.73;;;;;;;8.69;82.25;98270.41;4288353;33;33698;-77
2022/11/17 03:14:00;;;;;;;30.20;16.70;;;;;;;8.88;80.84;98269.84;4289020;33;34308;-75
2022/11/17 03:16:36;;;;;;;31.75;17.92;;;;;;;8.59;82.89;98265.81;4274812;33;34914;-81
2022/11/17 03:19:46;;;;;;;33.58;17.87;;;;;;;8.44;84.23;98263.13;4274725;33;33757;-74
2022/11/17 03:22:21;;;;;;;29.67;17.12;;;;;;;9.14;80.74;98270.59;4274459;33;34770;-75
2022/11/17 03:24:58;;;;;;;31.77;18.02;;;;;;;9.15;81.02;98258.66;4274690;33;34969;-75
2022/11/17 03:27:29;;;;;;;27.83;16.85;;;;;;;9.12;81.23;98248.41;4280196;33;35102;-75
2022/11/17 03:29:59;;;;;;;29.35;17.67;;;;;;;9.26;80.93;98262.16;4278546;33;34574;-75
2022/11/17 03:32:31;;;;;;;27.75;16.85;;;;;;;9.32;80.83;98248.31;4274422;33;34711;-75
2022/11/17 03:35:04;;;;;;;32.00;17.90;;;;;;;9.45;80.24;98253.13;4274700;33;34247;-80
2022/11/17 03:37:33;;;;;;;28.48;16.83;;;;;;;9.00;82.36;98259.53;4278125;33;34343;-75
2022/11/17 03:40:03;;;;;;;30.30;18.23;;;;;;;9.21;81.64;98266.50;4288933;33;33398;-80
2022/11/17 03:42:34;;;;;;;31.75;18.20;;;;;;;9.08;83.04;98285.22;4289008;33;34853;-80
2022/11/17 03:45:10;;;;;;;31.40;18.92;;;;;;;8.54;84.68;98292.06;4286548;33;33642;-79
2022/11/17 03:47:37;;;;;;;31.42;17.55;;;;;;;8.74;84.08;98304.75;4274662;33;35059;-74
2022/11/17 03:50:31;;;;;;;28.80;17.52;;;;;;;8.11;87.84;98311.19;4281356;33;34443;-74
2022/11/17 03:53:00;;;;;;;32.25;17.05;;;;;;;8.78;85.16;98316.66;4304301;33;34040;-76
2022/11/17 03:55:35;;;;;;;28.98;16.67;;;;;;;8.73;84.68;98317.47;4291453;33;35030;-76
2022/11/17 03:58:06;;;;;;;37.22;18.30;;;;;;;8.51;85.99;98323.16;4291371;33;34152;-75
2022/11/17 04:00:35;;;;;;;31.17;17.33;;;;;;;8.18;87.47;98327.13;4291226;33;34433;-78
2022/11/17 04:03:02;;;;;;;30.77;18.30;;;;;;;8.78;83.80;98324.75;4290824;33;34052;-74
2022/11/17 04:05:30;;;;;;;32.05;18.65;;;;;;;8.50;85.84;98321.50;4288498;33;35095;-74
2022/11/17 04:07:57;;;;;;;32.63;18.70;;;;;;;8.45;84.98;98316.13;4304360;33;34169;-75
2022/11/17 04:10:25;;;;;;;34.95;19.75;;;;;;;8.68;85.04;98320.16;4304173;33;33764;-75
2022/11/17 04:15:55;;;;;;;33.55;19.05;;;;;;;8.60;84.49;98304.50;4282182;33;33908;-81
2022/11/17 04:18:23;;;;;;;31.80;18.92;;;;;;;8.80;83.83;98306.38;4304373;33;34044;-71
2022/11/17 04:20:53;;;;;;;30.33;17.23;;;;;;;8.61;84.89;98309.63;4302735;33;33552;-71
2022/11/17 04:23:21;;;;;;;32.13;17.95;;;;;;;9.10;82.49;98313.62;4282470;33;34608;-79
2022/11/17 04:28:41;;;;;;;30.55;18.25;;;;;;;8.92;83.12;98314.19;4278840;33;34159;-72
2022/11/17 04:31:13;;;;;;;30.65;17.45;;;;;;;9.17;81.92;98326.84;4289777;33;33834;-78
2022/11/17 04:33:43;;;;;;;28.55;17.08;;;;;;;8.81;83.62;98313.38;4291896;33;34397;-81
2022/11/17 04:36:12;;;;;;;31.55;17.12;;;;;;;9.08;82.54;98312.28;4289619;33;34011;-80
2022/11/17 04:38:42;;;;;;;30.25;17.98;;;;;;;9.01;81.79;98309.84;4299768;33;34213;-73
2022/11/17 04:43:57;;;;;;;25.70;15.45;;;;;;;9.25;81.03;98315.47;4290809;33;34836;-73
2022/11/17 04:46:25;;;;;;;27.17;16.02;;;;;;;9.72;79.09;98313.38;4289485;33;34069;-73
2022/11/17 04:48:54;;;;;;;26.23;16.35;;;;;;;9.96;77.39;98318.97;4289645;33;34821;-73
2022/11/17 04:51:22;;;;;;;29.90;16.95;;;;;;;9.48;79.55;98321.34;4288885;33;33286;-72
2022/11/17 04:53:49;;;;;;;26.95;16.62;;;;;;;10.04;76.65;98330.03;4282047;33;33782;-83
2022/11/17 04:56:18;;;;;;;28.23;16.33;;;;;;;9.38;78.47;98314.88;4290179;33;34234;-81
2022/11/17 04:58:46;;;;;;;27.23;16.40;;;;;;;9.67;77.71;98325.06;4303664;33;34969;-72
2022/11/17 05:01:15;;;;;;;25.55;15.23;;;;;;;9.51;76.94;98318.09;4278570;33;33008;-73
2022/11/17 05:03:50;;;;;;;27.87;16.15;;;;;;;9.35;77.03;98328.97;4291132;33;33985;-77
2022/11/17 05:06:25;;;;;;;25.73;15.85;;;;;;;9.65;76.11;98332.63;4290753;33;34198;-72
2022/11/17 05:08:54;;;;;;;28.45;16.20;;;;;;;9.16;78.40;98338.78;4303925;33;34255;-73
2022/11/17 05:14:11;;;;;;;28.05;16.60;;;;;;;9.22;78.46;98349.31;4266603;33;33091;-82
2022/11/17 05:19:26;;;;;;;29.45;16.98;;;;;;;8.83;80.63;98349.91;4278351;33;34311;-72
2022/11/17 05:21:54;;;;;;;28.23;16.05;;;;;;;9.10;79.77;98354.19;4289677;33;33809;-74
2022/11/17 05:24:22;;;;;;;28.73;16.60;;;;;;;9.10;79.78;98354.19;4303578;33;34034;-82
2022/11/17 05:26:49;;;;;;;26.65;16.02;;;;;;;8.95;80.75;98346.91;4298749;33;34205;-72
2022/11/17 05:29:19;;;;;;;30.77;17.40;;;;;;;9.19;79.84;98351.75;4298675;33;34295;-73
2022/11/17 05:31:47;;;;;;;28.08;16.37;;;;;;;9.45;78.92;98347.87;4303895;33;33745;-73
2022/11/17 05:34:16;;;;;;;27.87;16.00;;;;;;;9.10;80.59;98340.66;4303547;33;34025;-73
2022/11/17 05:36:44;;;;;;;27.05;15.90;;;;;;;9.36;80.09;98348.72;4277841;33;35026;-73
2022/11/17 05:39:12;;;;;;;25.83;15.25;;;;;;;9.44;79.67;98348.16;4276160;33;34020;-81
2022/11/17 05:41:40;;;;;;;30.08;16.77;;;;;;;9.45;78.97;98345.16;4288163;33;31969;-72
2022/11/17 05:44:08;;;;;;;29.17;16.37;;;;;;;9.43;79.27;98331.09;4302301;33;33931;-72
2022/11/17 05:46:35;;;;;;;29.08;16.25;;;;;;;9.46;78.74;98340.59;4303424;33;35061;-72
2022/11/17 05:49:03;;;;;;;28.12;15.68;;;;;;;9.30;79.45;98339.00;4303776;33;34274;-84
2022/11/17 05:51:31;;;;;;;29.25;15.95;;;;;;;8.80;81.16;98346.94;4292578;33;34434;-72
2022/11/17 05:53:58;;;;;;;27.58;16.58;;;;;;;9.14;80.23;98354.47;4300193;33;34052;-73
2022/11/17 05:56:31;;;;;;;27.48;16.08;;;;;;;8.87;81.28;98354.78;4301375;33;34291;-71
2022/11/17 05:59:09;;;;;;;28.92;16.40;;;;;;;9.01;80.60;98353.13;4303094;33;34403;-79
2022/11/17 06:01:41;;;;;;;29.25;16.73;;;;;;;8.96;80.37;98353.13;4288395;33;33855;-79
2022/11/17 06:04:09;;;;;;;27.00;16.77;;;;;;;8.83;80.60;98360.72;4282148;33;34952;-71
2022/11/17 06:06:36;;;;;;;29.30;16.77;;;;;;;8.90;80.81;98367.72;4295755;33;34195;-70
2022/11/17 06:09:04;;;;;;;29.83;16.23;;;;;;;8.59;81.74;98370.44;4300526;33;34193;-74
2022/11/17 06:11:32;;;;;;;27.60;17.02;;;;;;;8.57;82.11;98362.63;4319175;33;34340;-75
2022/11/17 06:13:59;;;;;;;29.83;17.25;;;;;;;8.90;81.00;98379.38;4302512;33;33575;-77
2022/11/17 06:16:28;;;;;;;31.23;17.80;;;;;;;8.71;81.41;98367.50;4299248;33;33904;-72
2022/11/17 06:19:05;;;;;;;28.00;16.15;;;;;;;8.89;81.24;98366.12;4302933;33;34626;-76
2022/11/17 06:21:33;;;;;;;27.65;15.30;;;;;;;8.88;81.11;98367.22;4292808;33;34224;-74
2022/11/17 06:24:22;;;;;;;28.35;16.23;;;;;;;8.74;81.69;98369.66;4284587;33;34179;-71
2022/11/17 06:26:49;;;;;;;28.15;15.80;;;;;;;8.79;80.82;98370.47;4289712;33;34224;-73
2022/11/17 06:29:17;;;;;;;27.70;15.88;;;;;;;8.21;83.63;98367.94;4280259;33;34216;-80
2022/11/17 06:31:45;;;;;;;29.77;15.90;;;;;;;8.87;80.72;98360.19;4289668;33;33903;-72
2022/11/17 06:34:12;;;;;;;29.55;15.25;;;;;;;8.77;81.56;98361.00;4296842;33;33582;-72
2022/11/17 06:36:39;;;;;;;27.95;16.27;;;;;;;8.66;82.60;98365.59;4302966;33;34169;-70
2022/11/17 06:39:07;;;;;;;25.83;15.55;;;;;;;9.18;78.95;98366.38;4303498;33;34905;-70
2022/11/17 06:41:35;;;;;;;24.37;14.20;;;;;;;9.11;78.37;98369.34;4290550;33;34591;-71
2022/11/17 06:44:03;;;;;;;25.37;14.63;;;;;;;8.97;78.97;98374.50;4291466;33;34037;-72
2022/11/17 06:46:36;;;;;;;30.77;16.92;;;;;;;8.75;78.71;98384.81;4289061;33;35071;-71
2022/11/17 06:49:05;;;;;;;29.05;17.45;;;;;;;8.64;80.06;98384.00;4288488;33;34800;-78
2022/11/17 06:51:34;;;;;;;27.77;16.15;;;;;;;9.17;77.27;98391.78;4288867;33;33542;-72
2022/11/17 06:54:02;;;;;;;29.25;17.23;;;;;;;8.78;78.63;98390.47;4289218;33;34893;-71
2022/11/17 06:56:30;;;;;;;27.75;15.85;;;;;;;8.53;80.19;98396.69;4276254;33;33862;-73
2022/11/17 06:58:58;;;;;;;29.37;16.65;;;;;;;8.50;80.41;98389.09;4294513;33;34089;-73
2022/11/17 07:01:25;;;;;;;26.75;14.48;;;;;;;8.52;80.56;98395.03;4290123;33;33943;-72
2022/11/17 07:03:53;;;;;;;26.92;15.20;;;;;;;8.94;79.76;98407.53;4302941;33;33610;-72
2022/11/17 07:06:21;;;;;;;27.85;15.30;;;;;;;8.91;79.35;98399.94;4291486;33;34133;-81
2022/11/17 07:08:49;;;;;;;29.50;15.45;;;;;;;8.57;81.53;98410.44;4304799;33;34194;-80
2022/11/17 07:11:18;;;;;;;28.87;16.00;;;;;;;8.92;80.36;98408.84;4304130;33;34304;-69
2022/11/17 07:13:45;;;;;;;28.55;15.57;;;;;;;8.85;80.66;98406.41;4304308;33;34699;-78
2022/11/17 07:16:15;;;;;;;26.12;15.52;;;;;;;9.21;80.04;98406.41;4304055;33;35095;-71
2022/11/17 07:18:48;;;;;;;29.02;16.42;;;;;;;9.39;80.25;98400.41;4304008;33;34170;-78
2022/11/17 07:21:16;;;;;;;28.58;16.12;;;;;;;9.83;78.17;98409.78;4290838;33;34066;-78
2022/11/17 07:23:44;;;;;;;27.15;15.52;;;;;;;9.31;81.88;98397.44;4289946;33;34090;-77
2022/11/17 07:26:13;;;;;;;27.60;15.85;;;;;;;9.56;80.04;98397.38;4303866;33;35012;-74
2022/11/17 07:28:40;;;;;;;24.98;15.38;;;;;;;9.73;79.57;98405.19;4304128;33;34301;-72
2022/11/17 07:31:08;;;;;;;25.85;15.02;;;;;;;9.81;77.53;98407.34;4303847;33;33851;-78
2022/11/17 07:33:36;;;;;;;26.48;14.35;;;;;;;9.81;77.64;98409.25;4303858;33;33429;-78
2022/11/17 07:36:06;;;;;;;24.30;14.10;;;;;;;9.71;77.32;98404.66;4304012;33;34733;-79
2022/11/17 07:38:34;;;;;;;23.95;14.40;;;;;;;9.20;79.71;98411.00;4303234;33;34360;-78
2022/11/17 07:41:03;;;;;;;24.67;14.75;;;;;;;9.55;79.19;98414.72;4304156;33;34882;-79
2022/11/17 07:43:32;;;;;;;25.92;14.10;;;;;;;9.36;79.49;98411.00;4291085;33;34594;-79
2022/11/17 07:46:17;;;;;;;22.80;14.05;;;;;;;9.53;78.88;98427.75;4303402;33;35077;-77
2022/11/17 07:48:45;;;;;;;27.87;14.85;;;;;;;9.47;79.79;98422.59;4290995;33;34969;-78
2022/11/17 07:51:12;;;;;;;24.63;14.32;;;;;;;9.48;79.55;98424.22;4290984;33;34485;-78
2022/11/17 07:53:40;;;;;;;22.65;13.65;;;;;;;9.35;79.75;98431.00;4303014;33;33699;-71
2022/11/17 07:56:09;;;;;;;22.92;14.43;;;;;;;9.67;78.55;98422.53;4303726;33;34360;-71
2022/11/17 07:58:37;;;;;;;24.55;14.40;;;;;;;9.74;78.69;98412.25;4290966;33;33901;-73
2022/11/17 08:01:06;;;;;;;21.40;13.23;;;;;;;9.37;80.33;98409.88;4303973;33;33527;-77
2022/11/17 08:03:34;;;;;;;23.85;13.55;;;;;;;9.79;78.54;98416.84;4303950;33;34612;-78
2022/11/17 08:06:06;;;;;;;21.77;13.43;;;;;;;9.91;79.21;98416.50;4288262;33;33598;-78
2022/11/17 08:08:33;;;;;;;23.15;13.90;;;;;;;9.78;80.09;98407.06;4291151;33;34258;-80
2022/11/17 08:11:09;;;;;;;21.80;13.18;;;;;;;10.22;78.27;98401.72;4303480;33;33793;-76
2022/11/17 08:13:38;;;;;;;22.35;13.07;;;;;;;10.35;77.46;98405.75;4304076;33;34107;-73
2022/11/17 08:16:07;;;;;;;22.00;12.70;;;;;;;10.60;75.67;98412.91;4291207;33;35089;-76
2022/11/17 08:18:35;;;;;;;22.87;13.88;;;;;;;10.72;75.91;98417.19;4302886;33;34213;-81
2022/11/17 08:21:09;;;;;;;22.62;13.45;;;;;;;9.82;78.84;98419.78;4291056;33;33204;-70
2022/11/17 08:23:37;;;;;;;20.35;13.05;;;;;;;10.26;77.86;98423.69;4304238;33;33699;-71
2022/11/17 08:26:06;;;;;;;20.88;12.55;;;;;;;10.39;76.38;98423.09;4303866;33;35260;-72
2022/11/17 08:28:34;;;;;;;20.20;12.45;;;;;;;10.35;75.56;98429.34;4290097;33;35119;-71
2022/11/17 08:31:04;;;;;;;20.12;12.55;;;;;;;10.18;77.41;98422.34;4291112;33;33779;-71
2022/11/17 08:33:32;;;;;;;18.08;11.35;;;;;;;10.46;76.28;98420.88;4303400;33;34654;-72
2022/11/17 08:36:00;;;;;;;17.05;11.02;;;;;;;10.74;75.77;98439.41;4290834;33;34259;-81
2022/11/17 08:38:28;;;;;;;17.45;11.12;;;;;;;10.97;74.57;98427.03;4290685;33;34948;-80
2022/11/17 08:41:03;;;;;;;18.20;11.98;;;;;;;10.64;75.09;98429.44;4290491;33;34324;-75
2022/11/17 08:43:31;;;;;;;17.60;11.20;;;;;;;11.09;71.98;98433.69;4290163;33;33739;-71
2022/11/17 08:45:59;;;;;;;18.33;11.20;;;;;;;10.91;73.20;98441.72;4290956;33;34018;-71
2022/11/17 08:48:27;;;;;;;24.60;14.80;;;;;;;10.54;75.79;98443.88;4304423;33;34159;-72
2022/11/17 08:50:54;;;;;;;21.73;14.15;;;;;;;11.02;74.24;98451.44;4303902;33;33557;-77
2022/11/17 08:53:22;;;;;;;19.73;12.77;;;;;;;11.10;73.46;98450.81;4290878;33;33133;-72
2022/11/17 08:55:50;;;;;;;20.92;13.52;;;;;;;11.23;72.63;98447.44;4304155;33;34108;-71
2022/11/17 08:58:18;;;;;;;20.80;12.60;;;;;;;11.52;70.86;98453.97;4304190;33;34286;-75
2022/11/17 09:00:46;;;;;;;18.50;11.75;;;;;;;11.18;72.73;98450.19;4302689;33;33869;-82
2022/11/17 09:03:14;;;;;;;25.52;14.98;;;;;;;11.19;72.27;98451.81;4304074;33;34856;-83
2022/11/17 09:05:43;;;;;;;19.27;12.13;;;;;;;10.95;72.89;98443.59;4304028;33;34165;-75
2022/11/17 09:08:13;;;;;;;20.62;10.82;;;;;;;11.17;71.70;98451.28;4277686;33;33450;-83
2022/11/17 09:11:08;;;;;;;15.60;10.13;;;;;;;10.94;72.73;98454.72;4303442;33;33852;-74
2022/11/17 09:13:35;;;;;;;;;;;;;;;10.75;73.15;98452.69;4288549;33;34624;-68
2022/11/17 09:16:05;;;;;;;16.08;10.25;;;;;;;10.86;73.57;98458.84;4281043;33;34328;-69
2022/11/17 09:18:33;;;;;;;17.73;11.00;;;;;;;11.13;72.87;98466.53;4288963;33;33910;-70
2022/11/17 09:21:03;;;;;;;16.20;11.07;;;;;;;11.08;73.06;98467.38;4288916;33;34991;-72
2022/11/17 09:23:31;;;;;;;19.05;12.02;;;;;;;10.66;75.47;98465.22;4274644;33;34031;-72
2022/11/17 09:26:04;;;;;;;18.62;11.70;;;;;;;10.71;76.21;98467.09;4288612;33;34072;-71
2022/11/17 09:28:32;;;;;;;17.92;11.50;;;;;;;11.23;73.70;98471.88;4276240;33;34035;-72
2022/11/17 09:31:11;;;;;;;18.37;11.57;;;;;;;10.61;77.25;98467.97;4289042;33;33539;-73
2022/11/17 09:33:39;;;;;;;17.70;11.38;;;;;;;10.32;77.37;98473.28;4281310;33;33515;-73
2022/11/17 09:36:08;;;;;;;18.15;11.10;;;;;;;10.48;77.80;98463.19;4289937;33;34100;-71
2022/11/17 09:38:35;;;;;;;19.33;11.77;;;;;;;10.19;77.10;98458.38;4290068;33;34078;-73
2022/11/17 09:41:27;;;;;;;18.67;12.37;;;;;;;11.14;73.85;98461.91;4278514;33;33724;-75
2022/11/17 09:44:14;;;;;;;23.58;13.98;;;;;;;10.96;75.00;98460.69;4289751;33;34766;-73
2022/11/17 09:46:51;;;;;;;22.30;12.25;;;;;;;10.80;76.98;98451.88;4303027;33;35092;-74
2022/11/17 09:49:42;;;;;;;20.92;12.40;;;;;;;10.24;78.23;98448.34;4293717;33;34324;-73
2022/11/17 09:52:17;;;;;;;16.58;11.68;;;;;;;10.13;79.55;98454.91;4288637;33;34518;-73
2022/11/17 09:54:47;;;;;;;;;;;;;;;10.66;77.23;98447.03;4275578;33;33784;-75
2022/11/17 09:57:43;;;;;;;17.85;11.38;;;;;;;11.05;74.83;98442.69;4288560;33;34377;-73
2022/11/17 10:00:12;;;;;;;16.73;10.27;;;;;;;11.09;75.03;98443.75;4276078;33;33959;-74
2022/11/17 10:02:41;;;;;;;14.68;9.38;;;;;;;10.43;76.95;98436.88;4288658;33;33943;-74
2022/11/17 10:05:20;;;;;;;12.55;8.45;;;;;;;10.97;74.52;98435.16;4293591;33;34873;-77
2022/11/17 10:07:49;;;;;;;15.90;9.88;;;;;;;11.09;73.04;98436.41;4289217;33;34275;-74
2022/11/17 10:10:33;;;;;;;15.73;9.75;;;;;;;10.92;74.62;98432.50;4289790;33;34286;-72
2022/11/17 10:13:03;;;;;;;14.57;9.70;;;;;;;10.52;75.55;98439.81;4302627;33;33799;-76
2022/11/17 10:15:47;;;;;;;14.18;9.30;;;;;;;10.44;76.48;98435.81;4289399;33;34042;-73
2022/11/17 10:18:15;;;;;;;12.57;8.93;;;;;;;11.06;74.78;98441.62;4303422;33;34059;-85
2022/11/17 10:20:44;;;;;;;12.85;8.40;;;;;;;11.47;71.85;98438.53;4302840;33;34092;-74
2022/11/17 10:23:14;;;;;;;14.57;8.88;;;;;;;11.59;72.36;98440.84;4289320;33;33778;-79
2022/11/17 10:25:44;;;;;;;12.37;8.18;;;;;;;12.27;68.17;98435.19;4289955;33;33745;-74
2022/11/17 10:28:29;;;;;;;14.15;8.77;;;;;;;12.34;68.02;98439.47;4299406;33;34341;-82
2022/11/17 10:31:01;;;;;;;14.77;8.93;;;;;;;12.15;70.44;98439.44;4302340;33;34430;-71
2022/11/17 10:33:36;;;;;;;16.00;9.93;;;;;;;11.55;71.13;98431.66;4302382;33;34674;-74
2022/11/17 10:36:19;;;;;;;16.40;9.95;;;;;;;11.19;70.91;98434.72;4290954;33;34765;-73
2022/11/17 10:38:49;;;;;;;14.80;9.20;;;;;;;11.84;69.98;98428.91;4290716;33;35002;-75
2022/11/17 10:41:23;;;;;;;13.90;8.77;;;;;;;11.60;70.04;98429.72;4303825;33;35346;-75
2022/11/17 10:44:02;;;;;;;13.35;8.98;;;;;;;11.37;71.41;98433.19;4303841;33;34560;-78
2022/11/17 10:46:30;;;;;;;14.18;9.93;;;;;;;10.87;73.38;98444.22;4304150;33;33966;-74
2022/11/17 10:49:23;;;;;;;13.32;8.70;;;;;;;10.94;75.10;98444.69;4292533;33;34050;-74
2022/11/17 10:52:15;;;;;;;16.85;10.52;;;;;;;12.05;69.91;98443.91;4303955;33;34262;-74
2022/11/17 10:54:42;;;;;;;13.57;8.75;;;;;;;12.13;69.44;98447.06;4282781;33;33412;-78
2022/11/17 10:57:28;;;;;;;13.73;8.48;;;;;;;11.99;70.22;98441.53;4289402;33;34644;-79
2022/11/17 10:59:56;;;;;;;12.65;8.15;;;;;;;12.32;69.53;98439.75;4276636;33;33964;-77
2022/11/17 11:02:38;;;;;;;12.95;8.45;;;;;;;12.13;69.73;98438.91;4296211;33;33984;-73
2022/11/17 11:05:07;;;;;;;14.15;9.00;;;;;;;11.97;70.37;98441.84;4303358;33;33734;-73
2022/11/17 11:07:35;;;;;;;12.23;7.70;;;;;;;11.75;72.15;98430.63;4303469;33;34852;-73
2022/11/17 11:10:24;;;;;;;14.13;8.05;;;;;;;12.35;68.87;98436.44;4290140;33;34203;-72
2022/11/17 11:12:58;;;;;;;14.15;8.05;;;;;;;12.08;69.95;98429.72;4275887;33;34439;-73
2022/11/17 11:15:30;;;;;;;13.25;7.80;;;;;;;12.67;68.84;98421.31;4293569;33;33497;-74
2022/11/17 11:17:57;;;;;;;12.73;7.93;;;;;;;12.10;69.86;98416.66;4290397;33;34759;-73
2022/11/17 11:20:46;;;;;;;11.68;7.18;;;;;;;12.22;69.37;98409.97;4303421;33;34292;-73
2022/11/17 11:23:32;;;;;;;13.38;7.70;;;;;;;12.65;67.90;98423.53;4287978;33;33981;-72
2022/11/17 11:26:27;;;;;;;12.80;7.72;;;;;;;11.71;68.21;98422.25;4283346;33;215194;-71
2022/11/17 11:29:29;;;;;;;12.52;8.02;;;;;;;12.51;67.61;98423.47;4290164;33;34727;-71
2022/11/17 11:32:02;;;;;;;10.45;6.65;;;;;;;12.63;66.55;98431.97;4262682;33;33884;-71
2022/11/17 11:34:38;;;;;;;12.82;7.53;;;;;;;12.60;66.23;98437.22;4303163;33;34054;-72
2022/11/17 11:37:08;;;;;;;11.75;7.40;;;;;;;12.71;66.17;98431.31;4302903;33;33274;-72
2022/11/17 11:39:54;;;;;;;12.43;7.05;;;;;;;12.66;66.04;98428.69;4289963;33;33982;-72
2022/11/17 11:42:36;;;;;;;169.70;81.35;;;;;;;12.85;65.75;98431.37;4302372;33;34096;-79
2022/11/17 11:45:12;;;;;;;69.82;37.45;;;;;;;13.16;63.48;98430.09;4302697;33;33811;-71
2022/11/17 11:47:58;;;;;;;21.12;11.98;;;;;;;13.12;63.95;98436.09;4289575;33;34657;-72
2022/11/17 11:50:27;;;;;;;24.77;16.95;;;;;;;12.78;63.75;98436.38;4302878;33;34828;-71
2022/11/17 11:52:59;;;;;;;18.50;10.73;;;;;;;13.18;64.02;98430.59;4289258;33;34223;-72
2022/11/17 11:55:30;;;;;;;17.65;11.27;;;;;;;13.23;64.07;98423.13;4290107;33;33854;-73
2022/11/17 11:58:05;;;;;;;43.20;38.13;;;;;;;12.53;65.88;98429.41;4289356;33;32312;-80
2022/11/17 12:00:33;;;;;;;12.50;8.80;;;;;;;13.14;65.56;98428.44;4277695;33;33017;-74
2022/11/17 12:03:19;;;;;;;13.68;8.60;;;;;;;13.63;64.05;98423.56;4278144;33;33820;-74
2022/11/17 12:09:08;;;;;;;14.95;7.70;;;;;;;12.81;65.35;98429.56;4302961;33;33792;-75
2022/11/17 12:14:34;;;;;;;13.62;8.57;;;;;;;12.72;65.49;98426.66;4302263;33;34177;-73
2022/11/17 12:17:05;;;;;;;12.35;9.13;;;;;;;13.56;63.74;98430.50;4288346;33;35027;-74
2022/11/17 12:19:52;;;;;;;12.00;9.02;;;;;;;13.82;62.98;98420.75;4280674;33;34477;-74
2022/11/17 12:22:48;;;;;;;13.80;10.88;;;;;;;14.08;60.02;98418.31;4289422;33;34685;-75